Dzhezkazgan, Zhezkazgan Airport (UAKD)

NameZhezkazgan Airport
CityDzhezkazgan
CountryKazakhstan
ICAOUAKD
IATADZN
Altitude116 m
CoordinatesGoogle Map
Live Air TrafficLiveATC.net
METARUAKD 171600Z 22011MPS 9999 -SNRA OVC023 02/M03 Q1022 R22/1///63 NOSIG RMK QFE733/0978
2018-10-17 16:00:00 Wind: South-Southwest (220°) 11 m/s - Visibility: > 10000 m - Weather: Light Snow Rain - Temperature: 2 °C - Dew point: -3 °C - Humidity: 69.8% - Pressure: 1022 hPa

Sorry, no flights used the airport in this database.